sensor_id;sensor_type;location;lat;lon;timestamp;P1;durP1;ratioP1;P2;durP2;ratioP2
65174;SDS011;51761;42.126;24.752;2022-09-25T00:00:55;12.63;;;6.50;;
65174;SDS011;51761;42.126;24.752;2022-09-25T00:03:22;7.90;;;5.32;;
65174;SDS011;51761;42.126;24.752;2022-09-25T00:05:49;11.75;;;6.22;;
65174;SDS011;51761;42.126;24.752;2022-09-25T00:08:16;8.93;;;5.50;;
65174;SDS011;51761;42.126;24.752;2022-09-25T00:10:46;9.82;;;5.70;;
65174;SDS011;51761;42.126;24.752;2022-09-25T00:13:15;12.98;;;6.03;;
65174;SDS011;51761;42.126;24.752;2022-09-25T00:15:49;14.18;;;5.40;;
65174;SDS011;51761;42.126;24.752;2022-09-25T00:18:17;12.15;;;6.03;;
65174;SDS011;51761;42.126;24.752;2022-09-25T00:21:06;8.68;;;5.28;;
65174;SDS011;51761;42.126;24.752;2022-09-25T00:23:34;11.32;;;5.63;;
65174;SDS011;51761;42.126;24.752;2022-09-25T00:26:02;9.20;;;5.90;;
65174;SDS011;51761;42.126;24.752;2022-09-25T00:28:30;11.98;;;5.90;;
65174;SDS011;51761;42.126;24.752;2022-09-25T00:30:56;9.68;;;5.57;;
65174;SDS011;51761;42.126;24.752;2022-09-25T00:33:22;10.50;;;5.78;;
65174;SDS011;51761;42.126;24.752;2022-09-25T00:35:48;10.90;;;6.00;;
65174;SDS011;51761;42.126;24.752;2022-09-25T00:38:14;19.15;;;6.88;;
65174;SDS011;51761;42.126;24.752;2022-09-25T00:40:39;12.60;;;6.05;;
65174;SDS011;51761;42.126;24.752;2022-09-25T00:43:10;13.77;;;5.60;;
65174;SDS011;51761;42.126;24.752;2022-09-25T00:45:38;11.10;;;6.53;;
65174;SDS011;51761;42.126;24.752;2022-09-25T00:48:04;16.50;;;6.25;;
65174;SDS011;51761;42.126;24.752;2022-09-25T00:50:46;13.88;;;6.20;;
65174;SDS011;51761;42.126;24.752;2022-09-25T00:53:19;13.02;;;6.55;;
65174;SDS011;51761;42.126;24.752;2022-09-25T00:55:48;11.82;;;6.72;;
65174;SDS011;51761;42.126;24.752;2022-09-25T00:58:16;15.45;;;6.22;;
65174;SDS011;51761;42.126;24.752;2022-09-25T01:00:46;15.45;;;6.25;;
65174;SDS011;51761;42.126;24.752;2022-09-25T01:03:12;11.30;;;5.70;;
65174;SDS011;51761;42.126;24.752;2022-09-25T01:05:40;9.98;;;6.07;;
65174;SDS011;51761;42.126;24.752;2022-09-25T01:08:08;12.77;;;6.57;;
65174;SDS011;51761;42.126;24.752;2022-09-25T01:10:37;29.65;;;7.47;;
65174;SDS011;51761;42.126;24.752;2022-09-25T01:13:03;9.32;;;5.80;;
65174;SDS011;51761;42.126;24.752;2022-09-25T01:15:44;10.10;;;6.22;;
65174;SDS011;51761;42.126;24.752;2022-09-25T01:35:18;12.40;;;6.03;;
65174;SDS011;51761;42.126;24.752;2022-09-25T01:40:55;13.00;;;7.18;;
65174;SDS011;51761;42.126;24.752;2022-09-25T01:46:01;11.50;;;6.93;;
65174;SDS011;51761;42.126;24.752;2022-09-25T01:48:32;9.20;;;6.13;;
65174;SDS011;51761;42.126;24.752;2022-09-25T01:53:37;9.38;;;6.22;;
65174;SDS011;51761;42.126;24.752;2022-09-25T01:56:16;10.30;;;5.90;;
65174;SDS011;51761;42.126;24.752;2022-09-25T01:59:05;12.88;;;6.07;;
65174;SDS011;51761;42.126;24.752;2022-09-25T02:01:36;10.60;;;6.22;;
65174;SDS011;51761;42.126;24.752;2022-09-25T02:04:07;11.50;;;6.20;;
65174;SDS011;51761;42.126;24.752;2022-09-25T02:06:57;11.82;;;5.82;;
65174;SDS011;51761;42.126;24.752;2022-09-25T02:09:29;20.25;;;6.30;;
65174;SDS011;51761;42.126;24.752;2022-09-25T02:12:11;12.90;;;6.13;;
65174;SDS011;51761;42.126;24.752;2022-09-25T02:14:50;14.10;;;5.70;;
65174;SDS011;51761;42.126;24.752;2022-09-25T02:17:22;13.60;;;6.03;;
65174;SDS011;51761;42.126;24.752;2022-09-25T02:20:31;13.38;;;6.03;;
65174;SDS011;51761;42.126;24.752;2022-09-25T02:23:20;9.48;;;5.68;;
65174;SDS011;51761;42.126;24.752;2022-09-25T02:25:55;9.38;;;5.97;;
65174;SDS011;51761;42.126;24.752;2022-09-25T02:28:29;11.38;;;6.82;;
65174;SDS011;51761;42.126;24.752;2022-09-25T02:30:55;9.20;;;6.22;;
65174;SDS011;51761;42.126;24.752;2022-09-25T02:33:23;11.60;;;6.03;;
65174;SDS011;51761;42.126;24.752;2022-09-25T02:35:50;9.80;;;6.10;;
65174;SDS011;51761;42.126;24.752;2022-09-25T02:38:16;11.88;;;6.90;;
65174;SDS011;51761;42.126;24.752;2022-09-25T02:40:46;10.45;;;6.90;;
65174;SDS011;51761;42.126;24.752;2022-09-25T02:46:11;15.10;;;7.15;;
65174;SDS011;51761;42.126;24.752;2022-09-25T02:49:02;12.25;;;7.38;;
65174;SDS011;51761;42.126;24.752;2022-09-25T02:52:04;14.40;;;7.90;;
65174;SDS011;51761;42.126;24.752;2022-09-25T02:54:31;11.40;;;7.13;;
65174;SDS011;51761;42.126;24.752;2022-09-25T02:57:07;18.15;;;7.22;;
65174;SDS011;51761;42.126;24.752;2022-09-25T02:59:58;10.50;;;6.85;;
65174;SDS011;51761;42.126;24.752;2022-09-25T03:02:28;12.32;;;7.38;;
65174;SDS011;51761;42.126;24.752;2022-09-25T03:04:55;8.65;;;6.30;;
65174;SDS011;51761;42.126;24.752;2022-09-25T03:07:23;12.63;;;6.50;;
65174;SDS011;51761;42.126;24.752;2022-09-25T03:09:49;10.77;;;6.97;;
65174;SDS011;51761;42.126;24.752;2022-09-25T03:12:19;12.68;;;7.15;;
65174;SDS011;51761;42.126;24.752;2022-09-25T03:14:44;11.93;;;6.90;;
65174;SDS011;51761;42.126;24.752;2022-09-25T03:17:10;12.55;;;6.88;;
65174;SDS011;51761;42.126;24.752;2022-09-25T03:19:39;14.60;;;6.25;;
65174;SDS011;51761;42.126;24.752;2022-09-25T03:22:04;14.90;;;7.82;;
65174;SDS011;51761;42.126;24.752;2022-09-25T03:24:30;11.90;;;6.20;;
65174;SDS011;51761;42.126;24.752;2022-09-25T03:26:56;11.95;;;6.90;;
65174;SDS011;51761;42.126;24.752;2022-09-25T03:29:21;11.55;;;6.88;;
65174;SDS011;51761;42.126;24.752;2022-09-25T03:31:47;8.88;;;5.78;;
65174;SDS011;51761;42.126;24.752;2022-09-25T03:34:14;17.88;;;7.15;;
65174;SDS011;51761;42.126;24.752;2022-09-25T03:36:41;8.55;;;5.93;;
65174;SDS011;51761;42.126;24.752;2022-09-25T03:39:08;14.40;;;6.22;;
65174;SDS011;51761;42.126;24.752;2022-09-25T03:41:39;12.10;;;5.95;;
65174;SDS011;51761;42.126;24.752;2022-09-25T03:44:04;8.30;;;5.68;;
65174;SDS011;51761;42.126;24.752;2022-09-25T03:46:31;13.95;;;7.10;;
65174;SDS011;51761;42.126;24.752;2022-09-25T03:48:58;12.88;;;7.25;;
65174;SDS011;51761;42.126;24.752;2022-09-25T03:51:24;20.48;;;7.90;;
65174;SDS011;51761;42.126;24.752;2022-09-25T03:53:53;14.63;;;7.88;;
65174;SDS011;51761;42.126;24.752;2022-09-25T03:56:20;14.15;;;8.48;;
65174;SDS011;51761;42.126;24.752;2022-09-25T03:58:48;13.27;;;7.40;;
65174;SDS011;51761;42.126;24.752;2022-09-25T04:01:15;14.07;;;8.25;;
65174;SDS011;51761;42.126;24.752;2022-09-25T04:03:43;17.40;;;7.57;;
65174;SDS011;51761;42.126;24.752;2022-09-25T04:06:12;14.27;;;8.00;;
65174;SDS011;51761;42.126;24.752;2022-09-25T04:08:42;16.92;;;7.88;;
65174;SDS011;51761;42.126;24.752;2022-09-25T04:11:08;14.88;;;7.85;;
65174;SDS011;51761;42.126;24.752;2022-09-25T04:13:35;18.90;;;7.97;;
65174;SDS011;51761;42.126;24.752;2022-09-25T04:16:02;15.57;;;8.43;;
65174;SDS011;51761;42.126;24.752;2022-09-25T04:18:29;18.67;;;8.65;;
65174;SDS011;51761;42.126;24.752;2022-09-25T04:20:56;17.65;;;7.90;;
65174;SDS011;51761;42.126;24.752;2022-09-25T04:23:23;12.32;;;8.00;;
65174;SDS011;51761;42.126;24.752;2022-09-25T04:25:48;13.60;;;7.35;;
65174;SDS011;51761;42.126;24.752;2022-09-25T04:28:14;15.10;;;8.13;;
65174;SDS011;51761;42.126;24.752;2022-09-25T04:30:39;14.45;;;7.80;;
65174;SDS011;51761;42.126;24.752;2022-09-25T04:33:05;20.88;;;9.07;;
65174;SDS011;51761;42.126;24.752;2022-09-25T04:35:49;16.52;;;8.23;;
65174;SDS011;51761;42.126;24.752;2022-09-25T04:38:14;18.17;;;8.52;;
65174;SDS011;51761;42.126;24.752;2022-09-25T04:40:40;16.02;;;8.40;;
65174;SDS011;51761;42.126;24.752;2022-09-25T04:43:06;13.65;;;7.95;;
65174;SDS011;51761;42.126;24.752;2022-09-25T04:45:32;12.60;;;7.85;;
65174;SDS011;51761;42.126;24.752;2022-09-25T04:48:01;16.92;;;8.65;;
65174;SDS011;51761;42.126;24.752;2022-09-25T04:50:27;18.40;;;8.07;;
65174;SDS011;51761;42.126;24.752;2022-09-25T04:52:53;13.50;;;8.20;;
65174;SDS011;51761;42.126;24.752;2022-09-25T04:55:21;13.63;;;8.52;;
65174;SDS011;51761;42.126;24.752;2022-09-25T04:57:55;15.45;;;8.20;;
65174;SDS011;51761;42.126;24.752;2022-09-25T05:02:49;13.95;;;7.57;;
65174;SDS011;51761;42.126;24.752;2022-09-25T05:05:14;14.70;;;9.15;;
65174;SDS011;51761;42.126;24.752;2022-09-25T05:07:56;47.03;;;21.63;;
65174;SDS011;51761;42.126;24.752;2022-09-25T05:10:24;37.65;;;16.67;;
65174;SDS011;51761;42.126;24.752;2022-09-25T05:12:59;19.63;;;8.63;;
65174;SDS011;51761;42.126;24.752;2022-09-25T05:15:27;29.17;;;12.98;;
65174;SDS011;51761;42.126;24.752;2022-09-25T05:18:02;12.93;;;7.65;;
65174;SDS011;51761;42.126;24.752;2022-09-25T05:20:29;10.73;;;6.70;;
65174;SDS011;51761;42.126;24.752;2022-09-25T05:22:56;14.40;;;6.22;;
65174;SDS011;51761;42.126;24.752;2022-09-25T05:25:22;12.73;;;6.82;;
65174;SDS011;51761;42.126;24.752;2022-09-25T05:27:49;12.55;;;6.32;;
65174;SDS011;51761;42.126;24.752;2022-09-25T05:30:15;12.68;;;5.97;;
65174;SDS011;51761;42.126;24.752;2022-09-25T05:32:48;15.43;;;5.45;;
65174;SDS011;51761;42.126;24.752;2022-09-25T05:35:17;11.98;;;6.03;;
65174;SDS011;51761;42.126;24.752;2022-09-25T05:37:44;10.45;;;5.20;;
65174;SDS011;51761;42.126;24.752;2022-09-25T05:40:10;10.35;;;5.82;;
65174;SDS011;51761;42.126;24.752;2022-09-25T05:42:36;10.75;;;5.25;;
65174;SDS011;51761;42.126;24.752;2022-09-25T05:45:01;9.77;;;5.63;;
65174;SDS011;51761;42.126;24.752;2022-09-25T05:47:27;7.90;;;5.03;;
65174;SDS011;51761;42.126;24.752;2022-09-25T05:49:53;12.73;;;5.10;;
65174;SDS011;51761;42.126;24.752;2022-09-25T05:52:18;8.68;;;4.28;;
65174;SDS011;51761;42.126;24.752;2022-09-25T05:54:44;15.55;;;5.30;;
65174;SDS011;51761;42.126;24.752;2022-09-25T05:57:10;8.23;;;4.43;;
65174;SDS011;51761;42.126;24.752;2022-09-25T05:59:36;20.00;;;8.75;;
65174;SDS011;51761;42.126;24.752;2022-09-25T06:02:01;7.93;;;4.45;;
65174;SDS011;51761;42.126;24.752;2022-09-25T06:04:27;9.40;;;4.97;;
65174;SDS011;51761;42.126;24.752;2022-09-25T06:06:52;8.70;;;4.32;;
65174;SDS011;51761;42.126;24.752;2022-09-25T06:09:18;8.75;;;4.75;;
65174;SDS011;51761;42.126;24.752;2022-09-25T06:11:43;6.78;;;5.00;;
65174;SDS011;51761;42.126;24.752;2022-09-25T06:14:12;8.43;;;4.28;;
65174;SDS011;51761;42.126;24.752;2022-09-25T06:16:39;11.80;;;4.30;;
65174;SDS011;51761;42.126;24.752;2022-09-25T06:19:05;7.82;;;3.65;;
65174;SDS011;51761;42.126;24.752;2022-09-25T06:21:30;6.60;;;4.25;;
65174;SDS011;51761;42.126;24.752;2022-09-25T06:23:56;8.38;;;3.88;;
65174;SDS011;51761;42.126;24.752;2022-09-25T06:26:21;5.85;;;3.72;;
65174;SDS011;51761;42.126;24.752;2022-09-25T06:28:49;5.22;;;3.53;;
65174;SDS011;51761;42.126;24.752;2022-09-25T06:31:15;7.25;;;4.05;;
65174;SDS011;51761;42.126;24.752;2022-09-25T06:33:40;7.38;;;3.83;;
65174;SDS011;51761;42.126;24.752;2022-09-25T06:36:07;8.52;;;4.00;;
65174;SDS011;51761;42.126;24.752;2022-09-25T06:38:33;11.07;;;3.53;;
65174;SDS011;51761;42.126;24.752;2022-09-25T06:40:59;10.00;;;4.05;;
65174;SDS011;51761;42.126;24.752;2022-09-25T06:43:25;10.15;;;4.15;;
65174;SDS011;51761;42.126;24.752;2022-09-25T06:45:50;6.97;;;4.10;;
65174;SDS011;51761;42.126;24.752;2022-09-25T06:48:16;9.55;;;4.20;;
65174;SDS011;51761;42.126;24.752;2022-09-25T06:53:15;7.72;;;3.78;;
65174;SDS011;51761;42.126;24.752;2022-09-25T06:55:42;6.28;;;3.95;;
65174;SDS011;51761;42.126;24.752;2022-09-25T06:58:19;5.95;;;4.00;;
65174;SDS011;51761;42.126;24.752;2022-09-25T07:00:46;10.52;;;5.03;;
65174;SDS011;51761;42.126;24.752;2022-09-25T07:03:16;7.35;;;4.18;;
65174;SDS011;51761;42.126;24.752;2022-09-25T07:06:01;36.05;;;19.08;;
65174;SDS011;51761;42.126;24.752;2022-09-25T07:08:28;37.75;;;20.42;;
65174;SDS011;51761;42.126;24.752;2022-09-25T07:10:54;6.10;;;3.80;;
65174;SDS011;51761;42.126;24.752;2022-09-25T07:13:22;6.03;;;4.32;;
65174;SDS011;51761;42.126;24.752;2022-09-25T07:15:51;8.75;;;6.07;;
65174;SDS011;51761;42.126;24.752;2022-09-25T07:18:17;8.45;;;4.95;;
65174;SDS011;51761;42.126;24.752;2022-09-25T07:20:42;8.77;;;4.32;;
65174;SDS011;51761;42.126;24.752;2022-09-25T07:23:11;10.13;;;5.32;;
65174;SDS011;51761;42.126;24.752;2022-09-25T07:25:41;8.20;;;4.47;;
65174;SDS011;51761;42.126;24.752;2022-09-25T07:28:07;8.05;;;4.72;;
65174;SDS011;51761;42.126;24.752;2022-09-25T07:30:33;9.77;;;4.82;;
65174;SDS011;51761;42.126;24.752;2022-09-25T07:32:59;7.88;;;3.90;;
65174;SDS011;51761;42.126;24.752;2022-09-25T07:35:25;8.65;;;3.88;;
65174;SDS011;51761;42.126;24.752;2022-09-25T07:37:51;8.18;;;4.70;;
65174;SDS011;51761;42.126;24.752;2022-09-25T07:40:20;11.10;;;5.10;;
65174;SDS011;51761;42.126;24.752;2022-09-25T07:42:46;11.20;;;4.82;;
65174;SDS011;51761;42.126;24.752;2022-09-25T07:45:11;8.77;;;4.53;;
65174;SDS011;51761;42.126;24.752;2022-09-25T07:47:37;11.05;;;4.97;;
65174;SDS011;51761;42.126;24.752;2022-09-25T07:50:02;7.63;;;4.88;;
65174;SDS011;51761;42.126;24.752;2022-09-25T07:52:28;10.98;;;4.97;;
65174;SDS011;51761;42.126;24.752;2022-09-25T07:54:54;9.00;;;4.90;;
65174;SDS011;51761;42.126;24.752;2022-09-25T07:57:19;10.00;;;3.67;;
65174;SDS011;51761;42.126;24.752;2022-09-25T07:59:45;6.78;;;3.97;;
65174;SDS011;51761;42.126;24.752;2022-09-25T08:02:11;6.57;;;4.20;;
65174;SDS011;51761;42.126;24.752;2022-09-25T08:04:37;6.28;;;3.92;;
65174;SDS011;51761;42.126;24.752;2022-09-25T08:07:02;6.30;;;3.92;;
65174;SDS011;51761;42.126;24.752;2022-09-25T08:09:28;6.75;;;3.95;;
65174;SDS011;51761;42.126;24.752;2022-09-25T08:11:54;5.30;;;3.90;;
65174;SDS011;51761;42.126;24.752;2022-09-25T08:14:20;6.47;;;3.83;;
65174;SDS011;51761;42.126;24.752;2022-09-25T08:16:46;11.77;;;4.30;;
65174;SDS011;51761;42.126;24.752;2022-09-25T08:19:12;5.53;;;4.43;;
65174;SDS011;51761;42.126;24.752;2022-09-25T08:21:41;11.15;;;4.35;;
65174;SDS011;51761;42.126;24.752;2022-09-25T08:24:08;17.90;;;4.75;;
65174;SDS011;51761;42.126;24.752;2022-09-25T08:26:34;9.20;;;4.40;;
65174;SDS011;51761;42.126;24.752;2022-09-25T08:29:00;5.70;;;3.83;;
65174;SDS011;51761;42.126;24.752;2022-09-25T08:31:27;28.70;;;6.22;;
65174;SDS011;51761;42.126;24.752;2022-09-25T08:33:52;12.00;;;4.78;;
65174;SDS011;51761;42.126;24.752;2022-09-25T08:36:18;7.18;;;4.28;;
65174;SDS011;51761;42.126;24.752;2022-09-25T08:38:45;6.90;;;4.00;;
65174;SDS011;51761;42.126;24.752;2022-09-25T08:44:16;7.32;;;4.07;;
65174;SDS011;51761;42.126;24.752;2022-09-25T08:46:54;15.02;;;4.50;;
65174;SDS011;51761;42.126;24.752;2022-09-25T08:49:44;6.45;;;3.78;;
65174;SDS011;51761;42.126;24.752;2022-09-25T08:52:15;10.05;;;4.05;;
65174;SDS011;51761;42.126;24.752;2022-09-25T08:54:45;5.63;;;3.35;;
65174;SDS011;51761;42.126;24.752;2022-09-25T08:57:21;4.82;;;3.10;;
65174;SDS011;51761;42.126;24.752;2022-09-25T08:59:49;4.78;;;3.40;;
65174;SDS011;51761;42.126;24.752;2022-09-25T09:02:20;8.48;;;4.22;;
65174;SDS011;51761;42.126;24.752;2022-09-25T09:04:55;10.95;;;3.38;;
65174;SDS011;51761;42.126;24.752;2022-09-25T09:07:24;8.73;;;3.90;;
65174;SDS011;51761;42.126;24.752;2022-09-25T09:09:59;4.70;;;3.20;;
65174;SDS011;51761;42.126;24.752;2022-09-25T09:12:34;5.18;;;3.13;;
65174;SDS011;51761;42.126;24.752;2022-09-25T09:15:06;7.47;;;3.33;;
65174;SDS011;51761;42.126;24.752;2022-09-25T09:17:46;5.75;;;3.15;;
65174;SDS011;51761;42.126;24.752;2022-09-25T09:20:21;5.28;;;3.30;;
65174;SDS011;51761;42.126;24.752;2022-09-25T09:22:58;7.47;;;3.40;;
65174;SDS011;51761;42.126;24.752;2022-09-25T09:25:25;7.18;;;3.20;;
65174;SDS011;51761;42.126;24.752;2022-09-25T09:33:11;5.10;;;3.10;;
65174;SDS011;51761;42.126;24.752;2022-09-25T09:41:03;5.70;;;3.30;;
65174;SDS011;51761;42.126;24.752;2022-09-25T09:49:22;6.88;;;3.40;;
65174;SDS011;51761;42.126;24.752;2022-09-25T09:52:07;12.27;;;4.27;;
65174;SDS011;51761;42.126;24.752;2022-09-25T09:54:55;3.90;;;2.88;;
65174;SDS011;51761;42.126;24.752;2022-09-25T09:57:49;4.38;;;3.20;;
65174;SDS011;51761;42.126;24.752;2022-09-25T10:00:19;6.43;;;2.90;;
65174;SDS011;51761;42.126;24.752;2022-09-25T10:03:01;7.72;;;3.13;;
65174;SDS011;51761;42.126;24.752;2022-09-25T10:05:40;10.85;;;3.80;;
65174;SDS011;51761;42.126;24.752;2022-09-25T10:08:07;4.32;;;3.00;;
65174;SDS011;51761;42.126;24.752;2022-09-25T10:13:05;5.38;;;3.10;;
65174;SDS011;51761;42.126;24.752;2022-09-25T10:15:40;8.23;;;3.85;;
65174;SDS011;51761;42.126;24.752;2022-09-25T10:18:10;11.15;;;3.17;;
65174;SDS011;51761;42.126;24.752;2022-09-25T10:20:42;5.43;;;3.05;;
65174;SDS011;51761;42.126;24.752;2022-09-25T10:23:29;6.45;;;3.40;;
65174;SDS011;51761;42.126;24.752;2022-09-25T10:25:59;5.40;;;3.63;;
65174;SDS011;51761;42.126;24.752;2022-09-25T10:28:31;6.68;;;4.40;;
65174;SDS011;51761;42.126;24.752;2022-09-25T10:31:01;8.27;;;4.55;;
65174;SDS011;51761;42.126;24.752;2022-09-25T10:33:30;7.13;;;3.80;;
65174;SDS011;51761;42.126;24.752;2022-09-25T10:35:56;7.55;;;3.58;;
65174;SDS011;51761;42.126;24.752;2022-09-25T10:38:40;5.93;;;3.13;;
65174;SDS011;51761;42.126;24.752;2022-09-25T10:41:13;4.60;;;3.22;;
65174;SDS011;51761;42.126;24.752;2022-09-25T10:43:54;4.53;;;2.80;;
65174;SDS011;51761;42.126;24.752;2022-09-25T10:46:33;6.88;;;3.13;;
65174;SDS011;51761;42.126;24.752;2022-09-25T10:49:25;8.52;;;3.05;;
65174;SDS011;51761;42.126;24.752;2022-09-25T10:52:11;4.18;;;2.90;;
65174;SDS011;51761;42.126;24.752;2022-09-25T10:54:39;8.95;;;3.22;;
65174;SDS011;51761;42.126;24.752;2022-09-25T10:57:14;6.20;;;3.72;;
65174;SDS011;51761;42.126;24.752;2022-09-25T10:59:50;4.32;;;3.15;;
65174;SDS011;51761;42.126;24.752;2022-09-25T11:02:35;4.15;;;2.88;;
65174;SDS011;51761;42.126;24.752;2022-09-25T11:05:15;10.60;;;3.47;;
65174;SDS011;51761;42.126;24.752;2022-09-25T11:07:51;5.20;;;2.72;;
65174;SDS011;51761;42.126;24.752;2022-09-25T11:10:20;5.63;;;3.10;;
65174;SDS011;51761;42.126;24.752;2022-09-25T11:12:47;6.55;;;3.63;;
65174;SDS011;51761;42.126;24.752;2022-09-25T11:15:18;4.32;;;2.75;;
65174;SDS011;51761;42.126;24.752;2022-09-25T11:17:48;7.63;;;3.15;;
65174;SDS011;51761;42.126;24.752;2022-09-25T11:26:12;9.73;;;3.92;;
65174;SDS011;51761;42.126;24.752;2022-09-25T11:28:44;6.45;;;3.35;;
65174;SDS011;51761;42.126;24.752;2022-09-25T11:31:35;6.88;;;3.42;;
65174;SDS011;51761;42.126;24.752;2022-09-25T11:37:07;6.53;;;3.65;;
65174;SDS011;51761;42.126;24.752;2022-09-25T11:39:44;6.68;;;3.97;;
65174;SDS011;51761;42.126;24.752;2022-09-25T11:42:33;7.40;;;3.33;;
65174;SDS011;51761;42.126;24.752;2022-09-25T11:45:52;5.53;;;3.63;;
65174;SDS011;51761;42.126;24.752;2022-09-25T11:48:06;4.63;;;3.65;;
65174;SDS011;51761;42.126;24.752;2022-09-25T12:01:43;26.58;;;13.20;;
65174;SDS011;51761;42.126;24.752;2022-09-25T12:07:04;9.43;;;3.42;;
65174;SDS011;51761;42.126;24.752;2022-09-25T12:09:55;11.48;;;4.63;;
65174;SDS011;51761;42.126;24.752;2022-09-25T12:23:26;8.18;;;3.55;;
65174;SDS011;51761;42.126;24.752;2022-09-25T12:26:03;4.53;;;3.55;;
65174;SDS011;51761;42.126;24.752;2022-09-25T12:34:03;5.22;;;3.20;;
65174;SDS011;51761;42.126;24.752;2022-09-25T12:36:56;6.53;;;4.43;;
65174;SDS011;51761;42.126;24.752;2022-09-25T12:39:37;18.40;;;5.30;;
65174;SDS011;51761;42.126;24.752;2022-09-25T12:47:26;5.28;;;3.20;;
65174;SDS011;51761;42.126;24.752;2022-09-25T12:52:34;9.48;;;3.40;;
65174;SDS011;51761;42.126;24.752;2022-09-25T12:55:08;7.90;;;2.92;;
65174;SDS011;51761;42.126;24.752;2022-09-25T13:00:26;12.98;;;3.50;;
65174;SDS011;51761;42.126;24.752;2022-09-25T13:05:39;8.15;;;3.45;;
65174;SDS011;51761;42.126;24.752;2022-09-25T13:08:26;5.78;;;3.67;;
65174;SDS011;51761;42.126;24.752;2022-09-25T13:13:30;9.80;;;3.83;;
65174;SDS011;51761;42.126;24.752;2022-09-25T13:16:00;6.22;;;3.28;;
65174;SDS011;51761;42.126;24.752;2022-09-25T13:18:27;9.40;;;3.63;;
65174;SDS011;51761;42.126;24.752;2022-09-25T13:20:58;5.25;;;4.05;;
65174;SDS011;51761;42.126;24.752;2022-09-25T13:23:48;10.45;;;2.83;;
65174;SDS011;51761;42.126;24.752;2022-09-25T13:26:17;9.85;;;3.38;;
65174;SDS011;51761;42.126;24.752;2022-09-25T13:31:23;4.75;;;3.50;;
65174;SDS011;51761;42.126;24.752;2022-09-25T13:39:18;15.18;;;3.67;;
65174;SDS011;51761;42.126;24.752;2022-09-25T13:42:07;9.95;;;4.68;;
65174;SDS011;51761;42.126;24.752;2022-09-25T13:44:50;7.43;;;3.45;;
65174;SDS011;51761;42.126;24.752;2022-09-25T13:52:50;10.00;;;3.92;;
65174;SDS011;51761;42.126;24.752;2022-09-25T13:55:40;10.55;;;4.00;;
65174;SDS011;51761;42.126;24.752;2022-09-25T13:58:20;9.35;;;3.88;;
65174;SDS011;51761;42.126;24.752;2022-09-25T14:06:14;7.80;;;3.78;;
65174;SDS011;51761;42.126;24.752;2022-09-25T14:08:44;7.13;;;3.83;;
65174;SDS011;51761;42.126;24.752;2022-09-25T14:11:12;4.47;;;3.45;;
65174;SDS011;51761;42.126;24.752;2022-09-25T14:13:49;4.47;;;3.75;;
65174;SDS011;51761;42.126;24.752;2022-09-25T14:16:27;5.82;;;3.70;;
65174;SDS011;51761;42.126;24.752;2022-09-25T14:19:24;5.45;;;3.97;;
65174;SDS011;51761;42.126;24.752;2022-09-25T14:21:53;7.07;;;4.10;;
65174;SDS011;51761;42.126;24.752;2022-09-25T14:24:21;11.63;;;6.50;;
65174;SDS011;51761;42.126;24.752;2022-09-25T14:26:53;7.68;;;3.60;;
65174;SDS011;51761;42.126;24.752;2022-09-25T14:29:23;11.52;;;6.70;;
65174;SDS011;51761;42.126;24.752;2022-09-25T14:46:10;9.45;;;4.05;;
65174;SDS011;51761;42.126;24.752;2022-09-25T14:48:46;12.50;;;4.60;;
65174;SDS011;51761;42.126;24.752;2022-09-25T14:51:23;24.27;;;12.68;;
65174;SDS011;51761;42.126;24.752;2022-09-25T14:53:56;10.63;;;7.13;;
65174;SDS011;51761;42.126;24.752;2022-09-25T14:56:25;8.05;;;3.90;;
65174;SDS011;51761;42.126;24.752;2022-09-25T14:58:53;6.93;;;4.05;;
65174;SDS011;51761;42.126;24.752;2022-09-25T15:01:24;5.63;;;3.92;;
65174;SDS011;51761;42.126;24.752;2022-09-25T15:03:54;8.55;;;3.65;;
65174;SDS011;51761;42.126;24.752;2022-09-25T15:06:27;5.93;;;4.30;;
65174;SDS011;51761;42.126;24.752;2022-09-25T15:08:55;4.75;;;3.63;;
65174;SDS011;51761;42.126;24.752;2022-09-25T15:11:25;7.93;;;3.70;;
65174;SDS011;51761;42.126;24.752;2022-09-25T15:13:52;6.10;;;3.53;;
65174;SDS011;51761;42.126;24.752;2022-09-25T15:16:21;7.57;;;3.92;;
65174;SDS011;51761;42.126;24.752;2022-09-25T15:19:12;4.97;;;3.83;;
65174;SDS011;51761;42.126;24.752;2022-09-25T15:21:42;5.55;;;3.75;;
65174;SDS011;51761;42.126;24.752;2022-09-25T15:24:13;11.13;;;3.97;;
65174;SDS011;51761;42.126;24.752;2022-09-25T15:26:45;5.43;;;3.90;;
65174;SDS011;51761;42.126;24.752;2022-09-25T15:29:15;10.32;;;4.32;;
65174;SDS011;51761;42.126;24.752;2022-09-25T15:31:44;10.82;;;4.18;;
65174;SDS011;51761;42.126;24.752;2022-09-25T15:34:14;7.15;;;4.60;;
65174;SDS011;51761;42.126;24.752;2022-09-25T15:36:45;6.18;;;4.53;;
65174;SDS011;51761;42.126;24.752;2022-09-25T15:39:13;19.52;;;5.25;;
65174;SDS011;51761;42.126;24.752;2022-09-25T15:41:41;13.88;;;5.85;;
65174;SDS011;51761;42.126;24.752;2022-09-25T15:44:18;17.08;;;5.38;;
65174;SDS011;51761;42.126;24.752;2022-09-25T15:46:52;10.07;;;5.28;;
65174;SDS011;51761;42.126;24.752;2022-09-25T15:49:23;11.63;;;5.85;;
65174;SDS011;51761;42.126;24.752;2022-09-25T15:52:03;13.27;;;7.13;;
65174;SDS011;51761;42.126;24.752;2022-09-25T15:54:41;11.55;;;5.90;;
65174;SDS011;51761;42.126;24.752;2022-09-25T15:57:12;13.43;;;6.60;;
65174;SDS011;51761;42.126;24.752;2022-09-25T15:59:44;21.35;;;9.70;;
65174;SDS011;51761;42.126;24.752;2022-09-25T16:02:30;23.20;;;7.20;;
65174;SDS011;51761;42.126;24.752;2022-09-25T16:05:17;20.23;;;9.75;;
65174;SDS011;51761;42.126;24.752;2022-09-25T16:07:47;24.05;;;9.77;;
65174;SDS011;51761;42.126;24.752;2022-09-25T16:10:34;17.33;;;8.73;;
65174;SDS011;51761;42.126;24.752;2022-09-25T16:12:59;16.58;;;7.68;;
65174;SDS011;51761;42.126;24.752;2022-09-25T16:17:59;16.85;;;8.73;;
65174;SDS011;51761;42.126;24.752;2022-09-25T16:20:30;18.38;;;9.70;;
65174;SDS011;51761;42.126;24.752;2022-09-25T16:23:05;17.83;;;8.65;;
65174;SDS011;51761;42.126;24.752;2022-09-25T16:25:44;17.60;;;8.02;;
65174;SDS011;51761;42.126;24.752;2022-09-25T16:31:05;17.60;;;7.22;;
65174;SDS011;51761;42.126;24.752;2022-09-25T16:33:41;17.58;;;7.30;;
65174;SDS011;51761;42.126;24.752;2022-09-25T16:36:14;15.00;;;6.90;;
65174;SDS011;51761;42.126;24.752;2022-09-25T16:38:42;12.85;;;7.13;;
65174;SDS011;51761;42.126;24.752;2022-09-25T16:41:26;16.60;;;7.07;;
65174;SDS011;51761;42.126;24.752;2022-09-25T16:46:44;23.83;;;9.77;;
65174;SDS011;51761;42.126;24.752;2022-09-25T16:49:18;23.27;;;10.77;;
65174;SDS011;51761;42.126;24.752;2022-09-25T16:51:44;32.35;;;14.50;;
65174;SDS011;51761;42.126;24.752;2022-09-25T16:54:11;27.65;;;12.05;;
65174;SDS011;51761;42.126;24.752;2022-09-25T16:56:40;20.80;;;9.43;;
65174;SDS011;51761;42.126;24.752;2022-09-25T16:59:14;22.23;;;10.15;;
65174;SDS011;51761;42.126;24.752;2022-09-25T17:01:42;10.77;;;6.55;;
65174;SDS011;51761;42.126;24.752;2022-09-25T17:04:09;16.45;;;7.43;;
65174;SDS011;51761;42.126;24.752;2022-09-25T17:06:36;15.82;;;7.55;;
65174;SDS011;51761;42.126;24.752;2022-09-25T17:09:09;20.60;;;6.63;;
65174;SDS011;51761;42.126;24.752;2022-09-25T17:11:36;17.13;;;8.55;;
65174;SDS011;51761;42.126;24.752;2022-09-25T17:14:02;19.30;;;8.05;;
65174;SDS011;51761;42.126;24.752;2022-09-25T17:16:28;14.40;;;6.50;;
65174;SDS011;51761;42.126;24.752;2022-09-25T17:18:53;19.88;;;7.40;;
65174;SDS011;51761;42.126;24.752;2022-09-25T17:21:19;22.00;;;8.85;;